createdAt,value
2018-04-01T00:01:33.168Z,14.20
2018-04-01T00:04:00.276Z,12.40
2018-04-01T00:06:27.332Z,17.17
2018-04-01T00:08:54.320Z,13.60
2018-04-01T00:11:21.328Z,16.87
2018-04-01T00:13:48.323Z,19.30
2018-04-01T00:16:16.078Z,15.53
2018-04-01T00:18:43.854Z,16.57
2018-04-01T00:21:11.604Z,17.87
2018-04-01T00:23:39.390Z,17.23
2018-04-01T00:26:06.393Z,14.93
2018-04-01T00:28:33.395Z,20.47
2018-04-01T00:31:00.383Z,18.80
2018-04-01T00:33:27.385Z,20.53
2018-04-01T00:35:54.392Z,21.67
2018-04-01T00:38:25.167Z,19.77
2018-04-01T00:40:52.171Z,19.73
2018-04-01T00:43:19.992Z,23.07
2018-04-01T00:45:46.975Z,19.70
2018-04-01T00:48:14.755Z,23.90
2018-04-01T00:50:42.492Z,20.93
2018-04-01T00:53:09.489Z,20.17
2018-04-01T00:55:36.463Z,24.80
2018-04-01T00:58:03.444Z,20.50
2018-04-01T01:00:30.431Z,22.00
2018-04-01T01:02:57.405Z,21.60
2018-04-01T01:05:24.395Z,24.33
2018-04-01T01:07:51.376Z,22.67
2018-04-01T01:10:18.375Z,25.30
2018-04-01T01:12:45.353Z,24.10
2018-04-01T01:15:12.347Z,28.40
2018-04-01T01:17:40.091Z,25.67
2018-04-01T01:20:07.096Z,29.50
2018-04-01T01:22:34.079Z,27.13
2018-04-01T01:25:01.068Z,27.73
2018-04-01T01:27:28.056Z,32.83
2018-04-01T01:29:55.056Z,30.10
2018-04-01T01:32:22.090Z,28.87
2018-04-01T01:34:49.831Z,39.03
2018-04-01T01:37:16.812Z,33.93
2018-04-01T01:39:43.815Z,33.03
2018-04-01T01:42:10.864Z,32.97
2018-04-01T01:44:37.886Z,29.57
2018-04-01T01:47:04.874Z,29.00
2018-04-01T01:49:32.630Z,28.10
2018-04-01T01:51:59.630Z,27.17
2018-04-01T01:54:26.699Z,26.77
2018-04-01T01:56:53.683Z,26.63
2018-04-01T01:59:20.656Z,30.13
2018-04-01T02:01:47.650Z,25.13
2018-04-01T02:04:15.413Z,29.27
2018-04-01T02:06:43.415Z,29.03
2018-04-01T02:09:10.393Z,26.93
2018-04-01T02:11:37.415Z,29.00
2018-04-01T02:14:04.425Z,27.03
2018-04-01T02:16:32.162Z,29.23
2018-04-01T02:18:59.153Z,29.23
2018-04-01T02:21:26.151Z,29.63
2018-04-01T02:23:53.202Z,27.73
2018-04-01T02:26:20.180Z,28.13
2018-04-01T02:28:47.170Z,28.00
2018-04-01T02:31:14.230Z,29.17
2018-04-01T02:33:41.991Z,29.57
2018-04-01T02:36:08.987Z,28.00
2018-04-01T02:38:35.987Z,26.00
2018-04-01T02:41:03.726Z,28.83
2018-04-01T02:43:32.190Z,28.03
2018-04-01T02:45:59.160Z,26.87
2018-04-01T02:48:26.158Z,26.83
2018-04-01T02:50:53.152Z,26.03
2018-04-01T02:53:20.167Z,28.63
2018-04-01T02:55:47.234Z,28.57
2018-04-01T02:58:14.228Z,26.63
2018-04-01T03:00:41.210Z,28.87
2018-04-01T03:03:08.204Z,28.60
2018-04-01T03:05:35.961Z,27.57
2018-04-01T03:08:03.732Z,25.83
2018-04-01T03:10:31.514Z,21.80
2018-04-01T03:12:58.496Z,28.47
2018-04-01T03:15:25.462Z,26.27
2018-04-01T03:17:53.215Z,25.00
2018-04-01T03:20:20.224Z,26.63
2018-04-01T03:22:47.208Z,25.67
2018-04-01T03:25:14.204Z,25.27
2018-04-01T03:27:41.193Z,23.83
2018-04-01T03:30:08.207Z,24.53
2018-04-01T03:32:35.198Z,23.23
2018-04-01T03:35:02.969Z,23.10
2018-04-01T03:37:30.804Z,22.17
2018-04-01T03:39:57.829Z,26.00
2018-04-01T03:42:24.836Z,22.77
2018-04-01T03:44:51.822Z,21.53
2018-04-01T03:47:18.827Z,20.90
2018-04-01T03:49:45.819Z,19.93
2018-04-01T03:52:12.811Z,19.07
2018-04-01T03:54:40.568Z,18.50
2018-04-01T03:57:08.376Z,18.23
2018-04-01T03:59:35.412Z,17.10
2018-04-01T04:02:02.397Z,16.73
2018-04-01T04:04:29.494Z,17.40
2018-04-01T04:06:56.477Z,16.17
2018-04-01T04:09:23.518Z,16.97
2018-04-01T04:11:50.504Z,16.57
2018-04-01T04:14:17.595Z,20.47
2018-04-01T04:16:44.621Z,16.93
2018-04-01T04:19:11.657Z,15.37
2018-04-01T04:21:38.647Z,14.70
2018-04-01T04:24:05.651Z,15.50
2018-04-01T04:26:32.657Z,11.10
2018-04-01T04:28:59.641Z,10.43
2018-04-01T04:31:26.627Z,9.90
2018-04-01T04:33:53.669Z,10.00
2018-04-01T04:36:20.668Z,12.23
2018-04-01T04:38:48.348Z,10.67
2018-04-01T04:41:15.410Z,12.73
2018-04-01T04:43:42.396Z,10.80
2018-04-01T04:46:10.149Z,11.80
2018-04-01T04:48:37.146Z,9.23
2018-04-01T04:51:04.148Z,9.83
2018-04-01T04:53:31.960Z,10.77
2018-04-01T04:55:58.975Z,9.67
2018-04-01T04:58:26.114Z,8.63
2018-04-01T05:00:53.911Z,10.57
2018-04-01T05:03:20.938Z,10.57
2018-04-01T05:05:47.924Z,11.43
2018-04-01T05:08:15.093Z,12.07
2018-04-01T05:10:42.104Z,9.37
2018-04-01T05:13:10.904Z,10.50
2018-04-01T05:15:37.938Z,9.10
2018-04-01T05:18:04.935Z,9.27
2018-04-01T05:20:32.684Z,9.37
2018-04-01T05:23:02.541Z,8.90
2018-04-01T05:25:29.563Z,10.83
2018-04-01T05:27:56.552Z,10.60
2018-04-01T05:30:23.556Z,11.57
2018-04-01T05:32:50.581Z,12.13
2018-04-01T05:35:18.404Z,11.50
2018-04-01T05:37:45.419Z,11.23
2018-04-01T05:40:12.541Z,10.83
2018-04-01T05:42:40.313Z,11.13
2018-04-01T05:45:08.054Z,11.20
2018-04-01T05:47:35.028Z,11.03
2018-04-01T05:50:02.031Z,15.90
2018-04-01T05:52:28.996Z,16.60
2018-04-01T05:54:56.850Z,11.50
2018-04-01T05:57:23.938Z,11.50
2018-04-01T05:59:51.016Z,12.50
2018-04-01T06:02:18.089Z,12.10
2018-04-01T06:04:45.101Z,12.47
2018-04-01T06:07:12.121Z,13.73
2018-04-01T06:09:39.392Z,15.57
2018-04-01T06:12:06.520Z,12.77
2018-04-01T06:14:33.580Z,19.90
2018-04-01T06:17:00.604Z,14.03
2018-04-01T06:19:27.669Z,10.93
2018-04-01T06:21:54.936Z,11.03
2018-04-01T06:24:21.915Z,14.07
2018-04-01T06:26:49.865Z,8.60
2018-04-01T06:29:16.931Z,7.97
2018-04-01T06:31:44.930Z,4.60
2018-04-01T06:34:12.117Z,3.90
2018-04-01T06:36:39.215Z,3.90
2018-04-01T06:39:06.199Z,2.83
2018-04-01T06:41:33.183Z,4.00
2018-04-01T06:44:00.942Z,5.33
2018-04-01T06:46:29.443Z,3.70
2018-04-01T06:48:57.183Z,5.23
2018-04-01T06:51:24.393Z,3.47
2018-04-01T06:53:52.449Z,4.70
2018-04-01T06:56:19.547Z,3.50
2018-04-01T06:58:46.612Z,5.63
2018-04-01T07:01:14.609Z,5.50
2018-04-01T07:03:41.634Z,4.97
2018-04-01T07:06:08.610Z,3.90
2018-04-01T07:08:35.620Z,5.43
2018-04-01T07:11:03.480Z,4.50
2018-04-01T07:13:30.579Z,4.80
2018-04-01T07:15:58.233Z,3.83
2018-04-01T07:18:25.393Z,4.37
2018-04-01T07:20:52.574Z,4.30
2018-04-01T07:23:20.323Z,4.77
2018-04-01T07:25:47.704Z,6.77
2018-04-01T07:28:14.704Z,6.10
2018-04-01T07:30:41.689Z,6.13
2018-04-01T07:33:09.437Z,7.40
2018-04-01T07:35:37.235Z,5.90
2018-04-01T07:38:04.240Z,6.13
2018-04-01T07:40:31.269Z,6.50
2018-04-01T07:42:58.274Z,8.93
2018-04-01T07:45:25.277Z,7.10
2018-04-01T07:47:52.251Z,9.17
2018-04-01T07:50:19.297Z,9.00
2018-04-01T07:52:46.297Z,8.13
2018-04-01T07:55:14.052Z,9.27
2018-04-01T07:57:41.060Z,9.10
2018-04-01T08:00:08.043Z,10.13
2018-04-01T08:02:35.022Z,11.63
2018-04-01T08:05:02.780Z,13.03
2018-04-01T08:07:30.545Z,14.73
2018-04-01T08:09:58.290Z,12.70
2018-04-01T08:12:25.311Z,15.70
2018-04-01T08:14:52.299Z,14.87
2018-04-01T08:17:19.295Z,15.03
2018-04-01T08:19:46.277Z,14.43
2018-04-01T08:22:14.036Z,16.77
2018-04-01T08:24:41.028Z,17.37
2018-04-01T08:27:08.008Z,18.97
2018-04-01T08:29:35.019Z,16.97
2018-04-01T08:32:02.021Z,19.63
2018-04-01T08:34:29.782Z,20.73
2018-04-01T08:36:57.544Z,21.27
2018-04-01T08:39:25.300Z,20.83
2018-04-01T08:41:52.325Z,20.70
2018-04-01T08:44:19.388Z,20.17
2018-04-01T08:46:47.884Z,22.03
2018-04-01T08:49:15.635Z,22.47
2018-04-01T08:51:42.641Z,21.30
2018-04-01T08:54:09.644Z,21.67
2018-04-01T08:56:37.395Z,21.47
2018-04-01T08:59:05.190Z,21.20
2018-04-01T09:01:32.176Z,17.83
2018-04-01T09:03:59.165Z,15.93
2018-04-01T09:06:26.151Z,17.53
2018-04-01T09:08:53.205Z,14.93
2018-04-01T09:11:20.188Z,11.23
2018-04-01T09:13:47.944Z,11.20
2018-04-01T09:16:15.711Z,10.07
2018-04-01T09:18:43.480Z,12.37
2018-04-01T09:21:11.338Z,11.00
2018-04-01T09:23:38.417Z,12.23
2018-04-01T09:26:05.398Z,11.60
2018-04-01T09:28:32.388Z,14.43
2018-04-01T09:30:59.583Z,12.90
2018-04-01T09:33:28.504Z,15.80
2018-04-01T09:35:55.506Z,13.57
2018-04-01T09:38:22.728Z,17.17
2018-04-01T09:40:49.755Z,17.43
2018-04-01T09:43:17.569Z,16.67
2018-04-01T09:45:44.615Z,18.00
2018-04-01T09:48:11.629Z,18.90
2018-04-01T09:50:38.643Z,19.97
2018-04-01T09:53:06.398Z,22.20
2018-04-01T09:55:33.419Z,18.13
2018-04-01T09:58:00.411Z,20.70
2018-04-01T10:00:28.171Z,22.50
2018-04-01T10:02:56.442Z,23.93
2018-04-01T10:05:24.715Z,24.30
2018-04-01T10:07:52.555Z,24.53
2018-04-01T10:10:20.167Z,25.13
2018-04-01T10:12:47.630Z,25.30
2018-04-01T10:15:15.118Z,24.33
2018-04-01T10:17:42.631Z,24.63
2018-04-01T10:20:10.298Z,26.00
2018-04-01T10:22:38.522Z,24.57
2018-04-01T10:25:06.774Z,25.13
2018-04-01T10:27:34.255Z,24.60
2018-04-01T10:30:01.757Z,27.93
2018-04-01T10:32:29.300Z,26.27
2018-04-01T10:34:56.875Z,25.20
2018-04-01T10:37:24.354Z,29.47
2018-04-01T10:39:51.853Z,25.63
2018-04-01T10:42:20.103Z,26.13
2018-04-01T10:44:47.626Z,27.10
2018-04-01T10:47:15.189Z,28.73
2018-04-01T10:49:42.906Z,26.67
2018-04-01T10:52:11.185Z,28.77
2018-04-01T10:54:39.093Z,30.63
2018-04-01T10:57:06.294Z,27.47
2018-04-01T10:59:34.247Z,27.60
2018-04-01T11:02:02.015Z,24.10
2018-04-01T11:04:29.043Z,27.33
2018-04-01T11:06:56.051Z,26.77
2018-04-01T11:09:23.042Z,23.90
2018-04-01T11:11:50.106Z,25.53
2018-04-01T11:14:17.890Z,25.07
2018-04-01T11:16:44.930Z,23.27
2018-04-01T11:19:11.922Z,24.03
2018-04-01T11:21:38.935Z,22.50
2018-04-01T11:24:05.981Z,24.30
2018-04-01T11:26:32.943Z,22.90
2018-04-01T11:28:59.936Z,21.90
2018-04-01T11:31:27.692Z,24.10
2018-04-01T11:33:54.769Z,20.93
2018-04-01T11:36:21.763Z,19.33
2018-04-01T11:38:48.739Z,22.03
2018-04-01T11:41:16.539Z,21.43
2018-04-01T11:43:43.520Z,20.93
2018-04-01T11:46:10.529Z,20.37
2018-04-01T11:48:37.517Z,20.30
2018-04-01T11:51:04.507Z,24.40
2018-04-01T11:53:31.502Z,19.47
2018-04-01T11:55:58.503Z,18.27
2018-04-01T11:58:25.503Z,19.47
2018-04-01T12:00:52.689Z,14.50
2018-04-01T12:03:19.700Z,15.20
2018-04-01T12:05:47.596Z,15.40
2018-04-01T12:08:14.586Z,15.67
2018-04-01T12:10:41.625Z,14.83
2018-04-01T12:13:08.660Z,15.27
2018-04-01T12:15:35.640Z,14.73
2018-04-01T12:18:02.637Z,13.70
2018-04-01T12:20:29.636Z,15.67
2018-04-01T12:22:57.761Z,14.90
2018-04-01T12:25:24.750Z,15.13
2018-04-01T12:27:52.520Z,14.63
2018-04-01T12:30:20.272Z,14.13
2018-04-01T12:32:48.051Z,15.63
2018-04-01T12:35:15.787Z,15.57
2018-04-01T12:37:42.774Z,14.60
2018-04-01T12:40:09.781Z,14.03
2018-04-01T12:42:36.779Z,16.07
2018-04-01T12:45:03.774Z,15.27
2018-04-01T12:47:30.841Z,17.07
2018-04-01T12:49:58.648Z,15.97
2018-04-01T12:52:25.635Z,17.47
2018-04-01T12:54:53.403Z,18.47
2018-04-01T12:57:21.135Z,21.17
2018-04-01T12:59:48.172Z,18.80
2018-04-01T13:02:15.165Z,20.67
2018-04-01T13:04:42.938Z,18.60
2018-04-01T13:07:09.933Z,19.17
2018-04-01T13:09:36.953Z,20.13
2018-04-01T13:12:03.948Z,20.97
2018-04-01T13:14:31.723Z,17.97
2018-04-01T13:16:59.475Z,20.03
2018-04-01T13:19:27.275Z,17.90
2018-04-01T13:21:54.296Z,22.07
2018-04-01T13:24:21.326Z,18.77
2018-04-01T13:26:49.179Z,18.23
2018-04-01T13:29:16.197Z,20.47
2018-04-01T13:31:43.184Z,21.43
2018-04-01T13:34:10.954Z,23.27
2018-04-01T13:36:38.700Z,23.33
2018-04-01T13:39:06.473Z,19.20
2018-04-01T13:44:07.765Z,21.50
2018-04-01T13:46:34.748Z,22.80
2018-04-01T13:49:01.785Z,26.10
2018-04-01T13:51:28.780Z,22.97
2018-04-01T13:53:55.807Z,25.33
2018-04-01T13:56:22.828Z,26.10
2018-04-01T13:58:49.866Z,27.67
2018-04-01T14:01:17.028Z,29.23
2018-04-01T14:03:44.002Z,27.57
2018-04-01T14:06:11.763Z,28.90
2018-04-01T14:08:39.521Z,26.67
2018-04-01T14:11:07.315Z,29.80
2018-04-01T14:13:34.288Z,28.67
2018-04-01T14:16:01.299Z,29.70
2018-04-01T14:18:28.302Z,31.60
2018-04-01T14:20:55.309Z,27.97
2018-04-01T14:23:22.341Z,30.50
2018-04-01T14:25:49.340Z,32.00
2018-04-01T14:28:17.114Z,32.80
2018-04-01T14:30:44.902Z,36.00
2018-04-01T14:33:11.904Z,34.63
2018-04-01T14:35:38.894Z,38.03
2018-04-01T14:38:05.893Z,46.33
2018-04-01T14:40:32.941Z,41.07
2018-04-01T14:42:59.942Z,43.90
2018-04-01T14:45:26.935Z,45.60
2018-04-01T14:47:53.993Z,49.57
2018-04-01T14:50:21.902Z,46.07
2018-04-01T14:52:48.895Z,46.47
2018-04-01T14:55:15.891Z,47.83
2018-04-01T14:57:42.952Z,46.03
2018-04-01T15:00:09.942Z,39.73
2018-04-01T15:02:37.754Z,41.60
2018-04-01T15:05:04.753Z,39.53
2018-04-01T15:07:32.684Z,33.60
2018-04-01T15:09:59.695Z,37.07
2018-04-01T15:12:26.693Z,40.17
2018-04-01T15:14:54.905Z,35.57
2018-04-01T15:17:21.935Z,41.80
2018-04-01T15:19:48.966Z,36.97
2018-04-01T15:22:16.813Z,38.30
2018-04-01T15:24:43.843Z,44.07
2018-04-01T15:27:10.842Z,48.00
2018-04-01T15:29:37.916Z,34.90
2018-04-01T15:32:04.919Z,37.13
2018-04-01T15:34:32.690Z,33.40
2018-04-01T15:37:00.448Z,28.47
2018-04-01T15:39:28.275Z,20.40
2018-04-01T15:41:55.288Z,13.83
2018-04-01T15:44:22.276Z,9.83
2018-04-01T15:46:49.314Z,9.53
2018-04-01T15:49:16.300Z,9.77
2018-04-01T15:51:43.289Z,11.17
2018-04-01T15:54:10.271Z,12.17
2018-04-01T15:56:38.054Z,9.40
2018-04-01T15:59:05.063Z,11.50
2018-04-01T16:01:32.102Z,11.63
2018-04-01T16:03:59.094Z,14.13
2018-04-01T16:06:26.113Z,11.77
2018-04-01T16:08:54.066Z,13.30
2018-04-01T16:11:21.126Z,13.00
2018-04-01T16:13:48.350Z,18.00
2018-04-01T16:16:16.156Z,17.67
2018-04-01T16:18:44.154Z,18.63
2018-04-01T16:21:11.458Z,20.93
2018-04-01T16:23:38.632Z,17.43
2018-04-01T16:26:05.666Z,20.67
2018-04-01T16:28:32.734Z,18.03
2018-04-01T16:30:59.749Z,19.33
2018-04-01T16:33:27.563Z,22.87
2018-04-01T16:35:54.577Z,21.73
2018-04-01T16:38:21.571Z,21.47
2018-04-01T16:40:48.582Z,25.03
2018-04-01T16:43:15.571Z,23.33
2018-04-01T16:45:42.632Z,21.37
2018-04-01T16:48:09.781Z,25.40
2018-04-01T16:50:37.551Z,22.80
2018-04-01T16:53:05.403Z,24.67
2018-04-01T16:55:32.493Z,23.60
2018-04-01T16:57:59.563Z,21.53
2018-04-01T17:00:26.686Z,21.70
2018-04-01T17:02:53.736Z,22.77
2018-04-01T17:05:20.738Z,20.83
2018-04-01T17:07:48.664Z,23.47
2018-04-01T17:10:15.690Z,22.57
2018-04-01T17:12:42.691Z,21.23
2018-04-01T17:15:09.854Z,21.50
2018-04-01T17:17:36.855Z,21.17
2018-04-01T17:20:04.575Z,22.67
2018-04-01T17:22:31.699Z,20.60
2018-04-01T17:24:59.465Z,23.40
2018-04-01T17:27:27.289Z,23.60
2018-04-01T17:29:54.374Z,25.63
2018-04-01T17:32:21.427Z,28.40
2018-04-01T17:34:49.239Z,28.27
2018-04-01T17:37:16.257Z,28.57
2018-04-01T17:39:43.295Z,29.23
2018-04-01T17:42:10.306Z,29.47
2018-04-01T17:44:37.394Z,28.30
2018-04-01T17:47:04.724Z,30.47
2018-04-01T17:49:32.571Z,28.93
2018-04-01T17:51:59.592Z,35.00
2018-04-01T17:54:26.607Z,32.13
2018-04-01T17:56:53.595Z,31.93
2018-04-01T17:59:20.604Z,32.37
2018-04-01T18:01:47.637Z,29.97
2018-04-01T18:04:14.642Z,37.80
2018-04-01T18:06:41.669Z,29.10
2018-04-01T18:09:08.653Z,30.57
2018-04-01T18:11:36.443Z,33.50
2018-04-01T18:14:03.876Z,29.93
2018-04-01T18:16:31.767Z,32.47
2018-04-01T18:18:58.875Z,28.53
2018-04-01T18:21:26.649Z,26.17
2018-04-01T18:23:54.549Z,29.87
2018-04-01T18:26:21.693Z,28.40
2018-04-01T18:28:48.742Z,27.03
2018-04-01T18:31:15.863Z,28.17
2018-04-01T18:33:42.953Z,28.10
2018-04-01T18:36:10.112Z,29.80
2018-04-01T18:38:37.137Z,28.63
2018-04-01T18:41:04.184Z,27.13
2018-04-01T18:43:31.530Z,26.90
2018-04-01T18:45:58.788Z,31.37
2018-04-01T18:48:25.836Z,27.23
2018-04-01T18:50:52.862Z,32.97
2018-04-01T18:53:19.876Z,27.47
2018-04-01T18:55:47.642Z,24.07
2018-04-01T18:58:15.402Z,32.60
2018-04-01T19:00:43.162Z,25.33
2018-04-01T19:03:10.924Z,30.57
2018-04-01T19:05:38.691Z,29.47
2018-04-01T19:08:06.473Z,30.57
2018-04-01T19:10:33.476Z,25.90
2018-04-01T19:13:00.476Z,27.53
2018-04-01T19:15:27.461Z,26.10
2018-04-01T19:17:54.947Z,29.80
2018-04-01T19:20:23.194Z,29.13
2018-04-01T19:22:50.710Z,31.33
2018-04-01T19:25:18.190Z,31.63
2018-04-01T19:27:45.709Z,30.97
2018-04-01T19:30:13.203Z,30.73
2018-04-01T19:32:40.687Z,32.60
2018-04-01T19:35:08.480Z,32.20
2018-04-01T19:37:35.974Z,33.47
2018-04-01T19:40:04.466Z,35.00
2018-04-01T19:42:31.938Z,31.73
2018-04-01T19:44:59.431Z,33.30
2018-04-01T19:47:26.923Z,33.13
2018-04-01T19:49:54.459Z,37.00
2018-04-01T19:52:21.947Z,36.13
2018-04-01T19:54:49.428Z,35.33
2018-04-01T19:57:16.918Z,39.47
2018-04-01T19:59:44.436Z,39.63
2018-04-01T20:02:11.935Z,37.20
2018-04-01T20:04:39.427Z,41.30
2018-04-01T20:07:06.923Z,36.03
2018-04-01T20:09:34.433Z,36.53
2018-04-01T20:12:01.966Z,34.57
2018-04-01T20:14:29.470Z,37.40
2018-04-01T20:16:58.716Z,34.83
2018-04-01T20:19:26.234Z,39.93
2018-04-01T20:21:53.709Z,38.57
2018-04-01T20:24:22.004Z,38.20
2018-04-01T20:26:49.515Z,38.27
2018-04-01T20:29:17.059Z,35.93
2018-04-01T20:31:44.588Z,36.87
2018-04-01T20:34:12.369Z,40.17
2018-04-01T20:36:39.861Z,38.23
2018-04-01T20:39:08.154Z,40.20
2018-04-01T20:41:36.469Z,39.33
2018-04-01T20:44:04.782Z,38.87
2018-04-01T20:46:32.291Z,43.77
2018-04-01T20:48:59.781Z,41.23
2018-04-01T20:51:27.317Z,43.53
2018-04-01T20:53:54.822Z,42.17
2018-04-01T20:56:23.107Z,46.60
2018-04-01T20:58:51.387Z,44.30
2018-04-01T21:01:19.073Z,46.70
2018-04-01T21:03:46.782Z,47.53
2018-04-01T21:06:14.370Z,47.73
2018-04-01T21:08:41.953Z,47.83
2018-04-01T21:11:09.503Z,51.23
2018-04-01T21:13:37.262Z,51.47
2018-04-01T21:16:05.492Z,52.17
2018-04-01T21:18:33.036Z,51.20
2018-04-01T21:21:01.364Z,55.23
2018-04-01T21:23:29.115Z,60.17
2018-04-01T21:25:56.639Z,52.37
2018-04-01T21:28:24.199Z,56.60
2018-04-01T21:30:52.520Z,57.93
2018-04-01T21:33:20.086Z,72.07
2018-04-01T21:35:47.596Z,63.77
2018-04-01T21:38:15.974Z,61.70
2018-04-01T21:40:43.464Z,63.73
2018-04-01T21:43:11.011Z,68.27
2018-04-01T21:45:39.298Z,66.43
2018-04-01T21:48:07.003Z,70.57
2018-04-01T21:50:34.499Z,75.00
2018-04-01T21:53:02.883Z,65.63
2018-04-01T21:55:30.473Z,59.53
2018-04-01T21:57:58.071Z,66.57
2018-04-01T22:00:25.604Z,69.83
2018-04-01T22:02:53.098Z,62.57
2018-04-01T22:05:22.059Z,64.83
2018-04-01T22:07:49.681Z,62.97
2018-04-01T22:10:17.201Z,67.33
2018-04-01T22:12:45.562Z,73.27
2018-04-01T22:15:13.070Z,75.90
2018-04-01T22:17:40.599Z,72.17
2018-04-01T22:20:09.004Z,73.27
2018-04-01T22:22:48.309Z,74.07
2018-04-01T22:25:16.631Z,77.57
2018-04-01T22:27:44.119Z,73.97
2018-04-01T22:30:11.629Z,72.03
2018-04-01T22:32:39.180Z,78.57
2018-04-01T22:35:06.748Z,73.60
2018-04-01T22:37:34.254Z,79.73
2018-04-01T22:40:01.763Z,72.50
2018-04-01T22:42:29.404Z,81.20
2018-04-01T22:44:56.967Z,85.27
2018-04-01T22:47:24.635Z,89.87
2018-04-01T22:49:52.293Z,94.17
2018-04-01T22:52:19.813Z,95.60
2018-04-01T22:54:48.095Z,112.53
2018-04-01T22:57:16.365Z,109.87
2018-04-01T22:59:44.798Z,112.67
2018-04-01T23:02:12.389Z,120.03
2018-04-01T23:04:39.889Z,121.37
2018-04-01T23:07:07.741Z,119.03
2018-04-01T23:09:35.251Z,127.97
2018-04-01T23:12:02.808Z,131.10
2018-04-01T23:14:30.312Z,130.87
2018-04-01T23:16:57.821Z,127.27
2018-04-01T23:19:25.372Z,144.40
2018-04-01T23:21:52.906Z,153.10
2018-04-01T23:24:20.509Z,143.17
2018-04-01T23:26:48.823Z,155.53
2018-04-01T23:29:16.314Z,147.03
2018-04-01T23:31:43.854Z,151.47
2018-04-01T23:34:11.358Z,150.03
2018-04-01T23:36:38.931Z,148.07
2018-04-01T23:39:07.179Z,154.47
2018-04-01T23:41:34.772Z,146.70
2018-04-01T23:44:02.268Z,148.33
2018-04-01T23:46:29.777Z,160.43
2018-04-01T23:48:58.068Z,154.40
2018-04-01T23:51:25.683Z,152.47
2018-04-01T23:53:53.202Z,163.93
2018-04-01T23:56:20.732Z,157.20
2018-04-01T23:58:49.169Z,160.87
